Time;durP1;ratioP1;P1;durP2;ratioP2;P2;SDS_P1;SDS_P2;PMS_P1;PMS_P2;Temp;Humidity;BMP_temperature;BMP_pressure;BME280_temperature;BME280_humidity;BME280_pressure;Samples;Min_cycle;Max_cycle;Signal;HPM_P1;HPM_P2
2022/11/06 00:01:31;;;;;;;6.07;3.70;;;11.10;99.90;;;;;;5043222;28;20219;-72
2022/11/06 00:03:57;;;;;;;6.90;3.50;;;11.10;99.90;;;;;;5025995;28;20173;-71
2022/11/06 00:09:10;;;;;;;7.82;5.00;;;11.10;99.90;;;;;;5038795;28;20587;-72
2022/11/06 00:11:37;;;;;;;7.45;5.57;;;11.00;99.90;;;;;;5032060;28;20543;-72
2022/11/06 00:14:05;;;;;;;10.00;8.35;;;11.00;99.90;;;;;;5031575;28;20177;-72
2022/11/06 00:16:31;;;;;;;11.30;7.70;;;11.00;99.90;;;;;;5032191;28;20190;-72
2022/11/06 00:19:01;;;;;;;11.25;7.15;;;11.00;99.90;;;;;;5031952;28;20512;-72
2022/11/06 00:21:28;;;;;;;5.68;4.53;;;10.90;99.90;;;;;;5031694;28;20189;-72
2022/11/06 00:23:56;;;;;;;8.65;4.65;;;10.90;99.90;;;;;;5031453;28;20174;-72
2022/11/06 00:26:25;;;;;;;6.45;4.57;;;10.90;99.90;;;;;;5032474;28;20173;-73
2022/11/06 00:28:51;;;;;;;9.38;5.35;;;10.90;99.90;;;;;;5031647;28;20185;-72
2022/11/06 00:31:22;;;;;;;7.00;4.97;;;10.90;99.90;;;;;;5031629;28;20216;-72
2022/11/06 00:33:47;;;;;;;7.47;4.40;;;10.80;99.90;;;;;;5031395;28;20169;-72
2022/11/06 00:36:17;;;;;;;6.10;4.33;;;10.80;99.90;;;;;;5013865;28;20197;-73
2022/11/06 00:38:43;;;;;;;7.68;4.15;;;10.80;99.90;;;;;;5030576;28;20182;-73
2022/11/06 00:41:11;;;;;;;12.55;4.25;;;10.80;99.90;;;;;;5030024;28;20185;-72
2022/11/06 00:43:38;;;;;;;10.50;3.90;;;10.80;99.90;;;;;;5031354;28;20162;-72
2022/11/06 00:46:12;;;;;;;7.15;3.20;;;10.70;99.90;;;;;;5030645;28;20178;-72
2022/11/06 00:48:39;;;;;;;6.22;4.00;;;10.70;99.90;;;;;;5031613;28;20180;-72
2022/11/06 00:51:13;;;;;;;7.45;3.47;;;10.70;99.90;;;;;;5025625;28;20198;-72
2022/11/06 00:53:40;;;;;;;6.70;3.67;;;10.70;99.90;;;;;;4994120;28;20197;-72
2022/11/06 00:56:09;;;;;;;6.18;4.10;;;10.70;99.90;;;;;;4993867;28;20210;-73
2022/11/06 00:58:35;;;;;;;6.00;3.42;;;10.70;99.90;;;;;;5010585;28;20170;-73
2022/11/06 01:01:23;;;;;;;6.78;3.10;;;10.60;99.90;;;;;;5011364;28;20190;-72
2022/11/06 01:04:16;;;;;;;5.07;3.05;;;10.60;99.90;;;;;;4997682;28;20197;-73
2022/11/06 01:06:45;;;;;;;7.93;4.10;;;10.60;99.90;;;;;;4993278;28;20650;-73
2022/11/06 01:09:13;;;;;;;6.70;3.70;;;10.60;99.90;;;;;;5010209;28;20634;-73
2022/11/06 01:11:44;;;;;;;4.68;2.50;;;10.60;99.90;;;;;;5011044;28;20200;-73
2022/11/06 01:14:12;;;;;;;5.88;3.35;;;10.60;99.90;;;;;;5011493;28;20187;-73
2022/11/06 01:16:38;;;;;;;5.15;3.00;;;10.50;99.90;;;;;;5011376;28;20190;-73
2022/11/06 01:19:05;;;;;;;4.13;2.30;;;10.50;99.90;;;;;;5011541;28;20212;-73
2022/11/06 01:21:37;;;;;;;6.85;3.03;;;10.50;99.90;;;;;;4993782;28;20229;-73
2022/11/06 01:24:12;;;;;;;8.05;3.55;;;10.50;99.90;;;;;;5011209;28;20557;-73
2022/11/06 01:26:38;;;;;;;4.82;3.17;;;10.50;99.90;;;;;;5011293;28;20656;-74
2022/11/06 01:29:06;;;;;;;6.40;3.92;;;10.50;99.90;;;;;;5011442;28;20174;-73
2022/11/06 01:31:33;;;;;;;12.13;4.38;;;10.50;99.90;;;;;;5011259;28;20628;-72
2022/11/06 01:34:00;;;;;;;7.28;3.60;;;10.40;99.90;;;;;;5009497;28;20221;-73
2022/11/06 01:36:27;;;;;;;6.18;3.50;;;10.40;99.90;;;;;;5009889;28;20198;-73
2022/11/06 01:38:55;;;;;;;6.88;3.28;;;10.40;99.90;;;;;;5011353;28;20167;-73
2022/11/06 01:41:24;;;;;;;8.20;3.03;;;10.40;99.90;;;;;;5010935;28;20196;-73
2022/11/06 01:43:54;;;;;;;4.53;2.58;;;10.40;99.90;;;;;;5011043;28;20258;-73
2022/11/06 01:46:22;;;;;;;8.93;2.75;;;10.40;99.90;;;;;;5011299;28;20193;-72
2022/11/06 01:48:55;;;;;;;7.53;3.30;;;10.40;99.90;;;;;;5011217;28;20159;-73
2022/11/06 01:51:23;;;;;;;3.97;3.15;;;10.40;99.90;;;;;;5009764;28;20205;-72
2022/11/06 01:53:50;;;;;;;5.70;2.88;;;10.40;99.90;;;;;;5010927;28;20167;-72
2022/11/06 01:56:17;;;;;;;8.98;3.70;;;10.40;99.90;;;;;;5011031;28;20237;-72
2022/11/06 01:58:46;;;;;;;13.50;4.05;;;10.40;99.90;;;;;;5013750;28;20491;-73
2022/11/06 02:01:12;;;;;;;7.35;3.42;;;10.40;99.90;;;;;;4996860;28;20194;-72
2022/11/06 02:03:43;;;;;;;5.40;2.65;;;10.40;99.90;;;;;;5029798;28;20570;-72
2022/11/06 02:06:10;;;;;;;8.23;3.58;;;10.40;99.90;;;;;;5034806;28;20289;-73
2022/11/06 02:08:36;;;;;;;4.25;2.20;;;10.40;99.90;;;;;;5034565;28;20212;-73
2022/11/06 02:11:02;;;;;;;6.73;2.57;;;10.40;99.90;;;;;;5016125;28;20209;-73
2022/11/06 02:13:40;;;;;;;5.10;3.00;;;10.40;99.90;;;;;;5032901;28;20664;-73
2022/11/06 02:16:25;;;;;;;7.03;2.70;;;10.40;99.90;;;;;;5016349;28;20723;-73
2022/11/06 02:19:10;;;;;;;4.10;1.70;;;10.40;99.90;;;;;;5035140;28;20220;-73
2022/11/06 02:22:23;;;;;;;4.32;1.88;;;10.40;99.90;;;;;;5033876;28;20196;-73
2022/11/06 02:25:23;;;;;;;6.40;2.05;;;10.50;99.90;;;;;;4981853;28;20232;-71
2022/11/06 02:28:02;;;;;;;6.57;1.92;;;10.50;99.90;;;;;;5033898;28;20178;-71
2022/11/06 02:30:30;;;;;;;4.53;2.03;;;10.50;99.90;;;;;;5034117;28;20264;-72
2022/11/06 02:33:00;;;;;;;4.68;2.10;;;10.50;99.90;;;;;;5033698;28;20630;-73
2022/11/06 02:35:39;;;;;;;6.50;2.30;;;10.50;99.90;;;;;;5033595;28;20299;-72
2022/11/06 02:38:08;;;;;;;6.15;1.73;;;10.50;99.90;;;;;;5033995;28;20288;-72
2022/11/06 02:40:38;;;;;;;8.25;1.80;;;10.50;99.90;;;;;;5033794;28;20263;-72
2022/11/06 02:43:07;;;;;;;5.15;1.80;;;10.50;99.90;;;;;;5033467;28;20169;-72
2022/11/06 02:45:40;;;;;;;5.35;1.95;;;10.50;99.90;;;;;;5032459;28;20178;-72
2022/11/06 02:48:09;;;;;;;3.17;1.70;;;10.50;99.90;;;;;;5033788;28;20166;-72
2022/11/06 02:50:39;;;;;;;4.00;1.70;;;10.50;99.90;;;;;;5033661;28;20530;-72
2022/11/06 02:53:07;;;;;;;5.88;1.73;;;10.50;99.90;;;;;;5015491;28;20174;-72
2022/11/06 02:55:39;;;;;;;3.05;2.10;;;10.50;99.90;;;;;;5033370;28;20201;-72
2022/11/06 02:58:14;;;;;;;5.30;2.15;;;10.50;99.90;;;;;;5033410;28;20225;-72
2022/11/06 03:00:43;;;;;;;4.95;1.95;;;10.50;99.90;;;;;;5032425;28;20181;-72
2022/11/06 03:03:22;;;;;;;4.75;1.40;;;10.50;99.90;;;;;;5021517;28;20158;-72
2022/11/06 03:06:05;;;;;;;5.22;2.20;;;10.50;99.90;;;;;;5013955;28;20174;-72
2022/11/06 03:08:39;;;;;;;5.93;2.03;;;10.40;99.90;;;;;;5012704;28;20261;-72
2022/11/06 03:11:16;;;;;;;7.18;2.10;;;10.40;99.90;;;;;;5013669;28;20186;-73
2022/11/06 03:14:02;;;;;;;4.10;1.38;;;10.40;99.90;;;;;;5013127;28;20506;-72
2022/11/06 03:16:43;;;;;;;6.70;2.13;;;10.40;99.90;;;;;;5013571;28;20557;-72
2022/11/06 03:19:28;;;;;;;6.63;2.00;;;10.40;99.90;;;;;;5013270;28;20225;-72
2022/11/06 03:21:57;;;;;;;3.40;1.60;;;10.40;99.90;;;;;;5013293;28;20190;-73
2022/11/06 03:24:39;;;;;;;3.40;1.90;;;10.40;99.90;;;;;;5013135;28;20166;-72
2022/11/06 03:27:16;;;;;;;4.95;1.90;;;10.30;99.90;;;;;;5013472;28;20170;-73
2022/11/06 03:29:48;;;;;;;4.90;1.70;;;10.30;99.90;;;;;;5013190;28;20171;-72
2022/11/06 03:32:26;;;;;;;4.47;3.40;;;10.30;99.90;;;;;;5013130;28;20182;-72
2022/11/06 03:35:11;;;;;;;4.40;2.13;;;10.30;99.90;;;;;;5013276;28;20201;-72
2022/11/06 03:37:56;;;;;;;5.85;1.80;;;10.30;99.90;;;;;;5012874;28;20163;-72
2022/11/06 03:40:24;;;;;;;3.83;2.10;;;10.30;99.90;;;;;;5011827;28;20247;-73
2022/11/06 03:42:54;;;;;;;3.25;1.85;;;10.30;99.90;;;;;;5012772;28;20686;-73
2022/11/06 03:45:23;;;;;;;4.05;2.10;;;10.20;99.90;;;;;;5012863;28;20197;-72
2022/11/06 03:48:10;;;;;;;4.25;1.60;;;10.20;99.90;;;;;;5012903;28;20177;-72
2022/11/06 03:50:38;;;;;;;6.93;2.47;;;10.20;99.90;;;;;;5012501;28;20209;-71
2022/11/06 03:53:13;;;;;;;6.32;2.20;;;10.20;99.90;;;;;;5012719;28;20262;-72
2022/11/06 03:55:47;;;;;;;6.55;1.92;;;10.10;99.90;;;;;;5012599;28;20197;-73
2022/11/06 03:58:19;;;;;;;2.85;1.67;;;10.10;99.90;;;;;;5012881;28;20162;-72
2022/11/06 04:00:46;;;;;;;4.72;1.63;;;10.10;99.90;;;;;;5012494;28;20197;-72
2022/11/06 04:03:18;;;;;;;5.25;1.50;;;10.10;99.90;;;;;;5014141;28;20177;-72
2022/11/06 04:05:50;;;;;;;4.82;1.67;;;10.10;99.90;;;;;;5032047;28;20609;-72
2022/11/06 04:14:01;;;;;;;5.57;2.50;;;10.10;99.90;;;;;;5032045;28;20173;-72
2022/11/06 04:16:44;;;;;;;7.57;1.92;;;10.00;99.90;;;;;;5030824;28;20624;-72
2022/11/06 04:19:16;;;;;;;5.57;1.33;;;10.10;99.90;;;;;;5032152;28;20564;-72
2022/11/06 04:21:55;;;;;;;4.88;2.50;;;10.10;99.90;;;;;;5019560;28;20285;-72
2022/11/06 04:28:01;;;;;;;3.35;1.70;;;10.10;99.90;;;;;;5012417;28;20623;-72
2022/11/06 04:30:33;;;;;;;5.38;2.05;;;10.10;99.90;;;;;;5011965;28;20212;-72
2022/11/06 04:33:08;;;;;;;2.50;1.75;;;10.10;99.90;;;;;;5011956;28;20179;-72
2022/11/06 04:36:00;;;;;;;5.15;1.80;;;10.10;99.90;;;;;;5011926;28;20220;-72
2022/11/06 04:38:46;;;;;;;6.82;1.85;;;10.10;99.90;;;;;;5012154;28;20181;-73
2022/11/06 04:41:33;;;;;;;4.43;1.50;;;10.20;99.90;;;;;;5010572;28;20205;-72
2022/11/06 04:44:22;;;;;;;3.65;1.90;;;10.20;99.90;;;;;;5010615;28;20245;-72
2022/11/06 04:46:53;;;;;;;5.05;1.70;;;10.10;99.90;;;;;;5012210;28;20180;-72
2022/11/06 04:49:21;;;;;;;5.40;1.67;;;10.20;99.90;;;;;;5012099;28;20522;-73
2022/11/06 04:51:47;;;;;;;4.82;1.55;;;10.20;99.90;;;;;;5011102;28;20198;-72
2022/11/06 04:54:13;;;;;;;2.58;1.02;;;10.20;99.90;;;;;;5010288;28;20170;-72
2022/11/06 04:56:39;;;;;;;2.72;1.25;;;10.20;99.90;;;;;;5011474;28;20194;-72
2022/11/06 04:59:06;;;;;;;4.70;1.50;;;10.20;99.90;;;;;;4994380;28;20709;-72
2022/11/06 05:01:32;;;;;;;3.22;1.30;;;10.20;99.90;;;;;;5011136;28;20639;-72
2022/11/06 05:03:58;;;;;;;5.10;1.63;;;10.20;99.90;;;;;;5011376;28;20723;-72
2022/11/06 05:06:24;;;;;;;4.40;1.30;;;10.20;99.90;;;;;;5011417;28;20170;-72
2022/11/06 05:08:50;;;;;;;5.33;1.80;;;10.10;99.90;;;;;;5011708;28;20185;-72
2022/11/06 05:11:15;;;;;;;5.80;2.80;;;10.10;99.90;;;;;;5011363;28;20601;-72
2022/11/06 05:13:41;;;;;;;4.27;1.57;;;10.20;99.90;;;;;;5010034;28;20181;-72
2022/11/06 05:16:07;;;;;;;3.47;1.30;;;10.20;99.90;;;;;;5011397;28;20598;-72
2022/11/06 05:18:33;;;;;;;4.93;1.30;;;10.20;99.90;;;;;;4993891;28;20170;-73
2022/11/06 05:23:44;;;;;;;2.80;1.35;;;10.10;99.90;;;;;;5011250;28;20181;-73
2022/11/06 05:26:10;;;;;;;6.43;1.90;;;10.10;99.90;;;;;;5011471;28;20170;-73
2022/11/06 05:28:36;;;;;;;5.17;1.13;;;10.10;99.90;;;;;;5010158;28;20573;-72
2022/11/06 05:31:01;;;;;;;3.53;1.20;;;10.10;99.90;;;;;;5010147;28;20190;-73
2022/11/06 05:33:27;;;;;;;3.83;1.20;;;10.00;99.90;;;;;;5014729;28;20170;-72
2022/11/06 05:35:53;;;;;;;2.47;1.40;;;10.00;99.90;;;;;;5013996;28;20659;-73
2022/11/06 05:38:19;;;;;;;4.80;2.20;;;10.00;99.90;;;;;;5015349;28;20162;-72
2022/11/06 05:40:45;;;;;;;2.43;1.30;;;10.00;99.90;;;;;;5014015;28;20190;-72
2022/11/06 05:43:11;;;;;;;7.88;2.05;;;10.00;99.90;;;;;;4997128;28;20171;-72
2022/11/06 05:45:37;;;;;;;4.00;1.50;;;10.00;99.90;;;;;;5015299;28;20261;-72
2022/11/06 05:48:03;;;;;;;5.90;1.40;;;10.00;99.90;;;;;;5015109;28;20643;-72
2022/11/06 05:50:28;;;;;;;4.00;1.20;;;10.00;99.90;;;;;;5015003;28;20654;-72
2022/11/06 05:52:54;;;;;;;5.23;1.50;;;10.00;99.90;;;;;;5014385;28;20576;-73
2022/11/06 05:55:20;;;;;;;5.07;1.40;;;10.00;99.90;;;;;;5015128;28;20194;-73
2022/11/06 05:57:45;;;;;;;8.80;2.00;;;10.00;99.90;;;;;;5014999;28;20178;-72
2022/11/06 06:00:12;;;;;;;5.03;1.60;;;10.00;99.90;;;;;;5014782;28;20186;-72
2022/11/06 06:02:38;;;;;;;8.48;1.73;;;10.00;99.90;;;;;;5013001;28;20194;-72
2022/11/06 06:05:05;;;;;;;2.63;1.40;;;10.00;99.90;;;;;;5014735;28;20162;-72
2022/11/06 06:07:31;;;;;;;4.40;1.40;;;10.00;99.90;;;;;;5014921;28;20584;-72
2022/11/06 06:09:57;;;;;;;4.40;1.75;;;10.00;99.90;;;;;;5014728;28;20178;-72
2022/11/06 06:12:25;;;;;;;3.73;1.37;;;10.00;99.90;;;;;;5013031;28;20864;-72
2022/11/06 06:14:54;;;;;;;5.80;1.80;;;10.00;99.90;;;;;;5013402;28;20698;-72
2022/11/06 06:17:20;;;;;;;3.13;1.20;;;10.00;99.90;;;;;;5013282;28;20333;-72
2022/11/06 06:19:46;;;;;;;8.18;1.88;;;10.00;99.90;;;;;;5014573;28;20213;-72
2022/11/06 06:22:12;;;;;;;3.22;1.20;;;10.00;99.90;;;;;;5013997;28;20202;-72
2022/11/06 06:24:38;;;;;;;3.67;1.20;;;10.00;99.90;;;;;;5014442;28;20174;-72
2022/11/06 06:27:04;;;;;;;7.17;1.30;;;10.00;99.90;;;;;;5014413;28;20173;-72
2022/11/06 06:29:30;;;;;;;4.73;1.10;;;10.10;99.90;;;;;;4996731;28;20229;-72
2022/11/06 06:31:55;;;;;;;4.73;1.80;;;10.10;99.90;;;;;;4996730;28;20198;-72
2022/11/06 06:34:21;;;;;;;4.13;1.40;;;10.10;99.90;;;;;;5013960;28;20582;-72
2022/11/06 06:36:52;;;;;;;4.20;1.10;;;10.10;99.90;;;;;;5014428;28;20190;-72
2022/11/06 06:39:18;;;;;;;4.07;1.20;;;10.10;99.90;;;;;;5014365;28;20556;-72
2022/11/06 06:41:44;;;;;;;5.97;1.38;;;10.10;99.90;;;;;;5014088;28;20658;-72
2022/11/06 06:44:10;;;;;;;6.95;1.45;;;10.10;99.90;;;;;;5012477;28;20170;-72
2022/11/06 06:46:36;;;;;;;5.93;1.47;;;10.20;99.90;;;;;;5012907;28;20217;-72
2022/11/06 06:49:02;;;;;;;3.20;1.10;;;10.20;99.90;;;;;;4996320;28;20177;-73
2022/11/06 06:51:28;;;;;;;4.18;1.00;;;10.20;99.90;;;;;;5013759;28;20209;-72
2022/11/06 06:53:53;;;;;;;3.60;1.30;;;10.20;99.90;;;;;;5013602;28;20170;-72
2022/11/06 06:56:19;;;;;;;5.90;1.13;;;10.20;99.90;;;;;;5013841;28;20281;-72
2022/11/06 06:58:45;;;;;;;4.30;1.20;;;10.20;99.90;;;;;;5012443;28;20174;-72
2022/11/06 07:01:11;;;;;;;3.00;1.20;;;10.20;99.90;;;;;;5013552;28;20620;-72
2022/11/06 07:03:37;;;;;;;3.10;1.00;;;10.20;99.90;;;;;;5013398;28;20201;-73
2022/11/06 07:10:09;;;;;;;4.38;1.40;;;10.30;99.90;;;;;;4975439;28;20654;-80
2022/11/06 07:12:35;;;;;;;3.00;1.03;;;10.30;99.90;;;;;;5012543;28;20201;-81
2022/11/06 07:15:01;;;;;;;2.90;1.47;;;10.30;99.90;;;;;;5028165;28;20631;-80
2022/11/06 07:17:27;;;;;;;6.57;1.13;;;10.30;99.90;;;;;;5034055;28;20269;-80
2022/11/06 07:19:53;;;;;;;6.75;1.35;;;10.40;99.90;;;;;;5015486;28;20576;-80
2022/11/06 07:22:19;;;;;;;4.73;1.30;;;10.40;99.90;;;;;;5015303;28;20267;-80
2022/11/06 07:24:44;;;;;;;4.13;1.17;;;10.50;99.90;;;;;;5015571;28;20261;-80
2022/11/06 07:27:11;;;;;;;5.60;1.23;;;10.50;99.90;;;;;;5031857;28;20934;-81
2022/11/06 07:29:36;;;;;;;5.60;1.45;;;10.60;99.90;;;;;;5031883;28;20166;-80
2022/11/06 07:32:02;;;;;;;4.03;1.33;;;10.60;99.90;;;;;;5031452;28;20201;-79
2022/11/06 07:34:28;;;;;;;3.15;1.60;;;10.60;99.90;;;;;;5033168;28;20678;-78
2022/11/06 07:36:54;;;;;;;3.70;2.23;;;10.70;99.90;;;;;;5031628;28;20288;-79
2022/11/06 07:39:20;;;;;;;5.53;1.43;;;10.70;99.90;;;;;;5032588;28;20162;-79
2022/11/06 07:41:46;;;;;;;3.87;1.50;;;10.70;99.90;;;;;;5011862;28;20206;-79
2022/11/06 07:44:12;;;;;;;3.35;1.70;;;10.80;99.90;;;;;;5022556;28;20167;-79
2022/11/06 07:46:37;;;;;;;4.00;1.48;;;10.80;99.90;;;;;;5016356;28;20170;-79
2022/11/06 07:49:03;;;;;;;6.53;1.50;;;10.90;99.90;;;;;;5010376;28;20180;-79
2022/11/06 07:51:29;;;;;;;4.67;1.30;;;10.90;99.90;;;;;;5032120;28;20294;-79
2022/11/06 07:53:55;;;;;;;11.20;1.83;;;10.90;99.90;;;;;;5018369;28;20251;-79
2022/11/06 07:56:20;;;;;;;4.40;1.13;;;11.00;99.90;;;;;;5032259;28;20207;-79
2022/11/06 07:58:46;;;;;;;5.37;1.63;;;11.10;99.90;;;;;;4992165;28;20183;-79
2022/11/06 08:01:16;;;;;;;4.17;1.57;;;11.20;99.90;;;;;;4996753;28;20594;-79
2022/11/06 08:03:42;;;;;;;4.00;1.50;;;11.20;99.90;;;;;;5008358;28;20171;-79
2022/11/06 08:06:08;;;;;;;3.70;1.10;;;11.40;99.90;;;;;;5012881;28;20790;-80
2022/11/06 08:08:34;;;;;;;4.15;1.35;;;11.60;99.90;;;;;;5018144;28;20201;-79
2022/11/06 08:11:02;;;;;;;3.87;1.40;;;11.70;99.90;;;;;;5018535;28;20280;-79
2022/11/06 08:13:27;;;;;;;5.22;1.60;;;11.80;99.90;;;;;;5026787;28;20580;-79
2022/11/06 08:15:53;;;;;;;3.93;1.00;;;11.90;99.90;;;;;;5032083;28;20256;-79
2022/11/06 08:18:19;;;;;;;7.30;1.50;;;12.00;99.90;;;;;;5032101;28;20170;-79
2022/11/06 08:20:45;;;;;;;4.67;1.50;;;12.10;99.90;;;;;;5032387;28;20194;-79
2022/11/06 08:23:12;;;;;;;6.57;2.00;;;12.10;99.90;;;;;;5028004;28;20566;-81
2022/11/06 08:25:38;;;;;;;4.82;1.50;;;12.10;99.90;;;;;;5011248;28;20202;-80
2022/11/06 08:28:04;;;;;;;5.65;1.33;;;12.10;99.90;;;;;;5022479;28;20174;-80
2022/11/06 08:30:30;;;;;;;2.55;1.10;;;12.10;99.90;;;;;;5027585;28;20166;-79
2022/11/06 08:33:05;;;;;;;5.00;1.60;;;12.20;99.90;;;;;;5015041;28;20161;-79
2022/11/06 08:35:33;;;;;;;4.15;1.50;;;12.20;99.90;;;;;;5014213;28;20681;-80
2022/11/06 08:37:59;;;;;;;2.80;1.20;;;12.40;99.90;;;;;;4996501;28;20258;-79
2022/11/06 08:40:25;;;;;;;3.77;1.40;;;12.50;99.90;;;;;;4980496;28;21579;-79
2022/11/06 08:42:51;;;;;;;4.57;1.40;;;12.60;99.90;;;;;;5001519;28;20581;-79
2022/11/06 08:45:17;;;;;;;4.90;1.33;;;12.70;99.90;;;;;;5001100;28;20578;-79
2022/11/06 08:47:42;;;;;;;5.83;1.60;;;12.80;99.90;;;;;;4995448;28;20182;-79
2022/11/06 08:50:09;;;;;;;4.50;1.57;;;13.00;99.90;;;;;;4991396;28;20199;-79
2022/11/06 08:52:35;;;;;;;5.07;1.43;;;13.10;99.90;;;;;;4991957;28;20673;-79
2022/11/06 08:55:02;;;;;;;6.87;1.17;;;13.20;99.90;;;;;;4992440;28;20621;-79
2022/11/06 08:57:27;;;;;;;3.58;1.65;;;13.30;99.90;;;;;;4975102;28;20163;-79
2022/11/06 08:59:53;;;;;;;2.67;1.20;;;13.50;99.90;;;;;;4991366;28;20167;-79
2022/11/06 09:02:19;;;;;;;3.13;1.30;;;13.70;99.90;;;;;;5008740;28;20239;-80
2022/11/06 09:04:44;;;;;;;7.00;1.80;;;14.10;99.90;;;;;;5031127;28;20177;-79
2022/11/06 09:07:10;;;;;;;4.03;1.53;;;14.30;99.90;;;;;;5033866;28;20165;-79
2022/11/06 09:09:36;;;;;;;3.40;1.30;;;14.80;99.90;;;;;;5029452;28;20166;-80
2022/11/06 09:12:02;;;;;;;4.07;1.60;;;15.30;99.90;;;;;;5003133;28;20721;-80
2022/11/06 09:14:28;;;;;;;7.23;1.60;;;16.00;99.90;;;;;;5000560;28;20167;-80
2022/11/06 09:16:54;;;;;;;3.60;1.63;;;16.60;99.90;;;;;;5015077;28;20621;-80
2022/11/06 09:19:20;;;;;;;5.33;1.87;;;17.00;99.90;;;;;;5011282;28;20578;-80
2022/11/06 09:21:45;;;;;;;6.40;1.43;;;17.30;99.90;;;;;;5011778;28;20700;-80
2022/11/06 09:24:11;;;;;;;2.93;1.10;;;17.40;99.90;;;;;;5011480;28;20166;-80
2022/11/06 09:26:37;;;;;;;2.70;1.10;;;17.30;99.90;;;;;;4994446;28;20573;-80
2022/11/06 09:29:03;;;;;;;2.80;1.40;;;17.30;99.90;;;;;;5011914;28;20625;-79
2022/11/06 09:31:29;;;;;;;5.87;1.30;;;17.40;99.90;;;;;;4994073;28;20684;-80
2022/11/06 09:33:54;;;;;;;2.37;1.20;;;17.60;99.90;;;;;;5011562;28;20574;-80
2022/11/06 09:36:20;;;;;;;3.30;1.30;;;17.90;99.90;;;;;;5011855;28;20210;-80
2022/11/06 09:38:47;;;;;;;4.57;1.57;;;17.80;99.90;;;;;;5012124;28;20561;-77
2022/11/06 09:41:46;;;;;;;3.87;1.17;;;17.50;99.90;;;;;;5011294;28;20601;-77
2022/11/06 09:44:27;;;;;;;6.03;1.47;;;16.80;99.90;;;;;;5000201;28;20998;-77
2022/11/06 09:46:54;;;;;;;3.00;1.43;;;16.40;99.90;;;;;;5010544;28;20596;-77
2022/11/06 09:49:23;;;;;;;4.23;1.60;;;16.10;99.90;;;;;;5009961;28;20617;-77
2022/11/06 09:52:01;;;;;;;4.23;1.20;;;15.80;99.90;;;;;;5010466;28;20653;-77
2022/11/06 09:54:49;;;;;;;7.00;1.80;;;15.60;99.90;;;;;;5020826;28;20616;-76
2022/11/06 09:57:38;;;;;;;3.60;1.30;;;15.30;99.90;;;;;;5020597;28;20577;-77
2022/11/06 10:00:06;;;;;;;6.20;1.90;;;15.20;99.90;;;;;;5021325;28;20566;-77
2022/11/06 10:02:41;;;;;;;3.03;1.27;;;15.10;99.90;;;;;;5020935;28;21554;-77
2022/11/06 10:05:21;;;;;;;8.63;1.47;;;15.20;99.90;;;;;;5025949;28;20580;-78
2022/11/06 10:07:51;;;;;;;3.57;1.70;;;15.10;99.90;;;;;;5019396;28;20570;-76
2022/11/06 10:10:19;;;;;;;3.33;1.80;;;15.00;99.90;;;;;;5020364;28;20596;-76
2022/11/06 10:13:09;;;;;;;2.90;1.53;;;14.90;99.90;;;;;;5017791;28;20737;-76
2022/11/06 10:15:44;;;;;;;4.70;1.80;;;14.90;99.90;;;;;;5018531;28;20794;-78
2022/11/06 10:18:15;;;;;;;5.70;1.80;;;14.80;99.90;;;;;;5020049;28;20668;-76
2022/11/06 10:21:01;;;;;;;4.70;1.97;;;14.60;99.90;;;;;;5034488;28;21200;-78
2022/11/06 10:23:40;;;;;;;6.30;2.63;;;14.60;99.90;;;;;;5024893;28;21011;-77
2022/11/06 10:26:15;;;;;;;5.37;1.87;;;14.40;99.90;;;;;;5029662;28;20585;-77
2022/11/06 10:29:10;;;;;;;8.00;2.57;;;14.40;99.90;;;;;;4990202;28;20593;-77
2022/11/06 10:32:02;;;;;;;3.27;1.70;;;14.40;99.90;;;;;;5013077;28;21180;-77
2022/11/06 10:34:52;;;;;;;3.70;1.50;;;14.50;99.90;;;;;;5014459;28;20557;-79
2022/11/06 10:37:31;;;;;;;4.03;1.87;;;14.60;99.90;;;;;;5014222;28;20605;-78
2022/11/06 10:39:58;;;;;;;4.90;1.97;;;14.60;99.90;;;;;;5030040;28;20634;-78
2022/11/06 10:42:33;;;;;;;5.17;1.70;;;14.70;99.90;;;;;;5054687;28;20948;-79
2022/11/06 10:45:04;;;;;;;4.93;2.07;;;14.70;99.90;;;;;;5058236;28;20570;-79
2022/11/06 10:47:40;;;;;;;4.67;2.20;;;14.60;99.90;;;;;;5061203;28;20629;-80
2022/11/06 10:50:11;;;;;;;4.13;2.20;;;14.50;99.90;;;;;;5056560;28;20612;-80
2022/11/06 10:53:07;;;;;;;4.17;1.87;;;14.50;99.90;;;;;;5016231;28;20609;-79
2022/11/06 10:56:21;;;;;;;4.80;2.20;;;14.40;99.90;;;;;;5012947;28;20609;-79
2022/11/06 10:58:47;;;;;;;3.70;1.40;;;14.30;99.90;;;;;;4978454;28;20589;-78
2022/11/06 11:01:13;;;;;;;3.47;1.70;;;14.20;99.90;;;;;;5015120;28;20640;-80
2022/11/06 11:03:43;;;;;;;5.93;1.73;;;14.20;99.90;;;;;;5012267;28;20186;-80
2022/11/06 11:06:09;;;;;;;4.40;1.70;;;14.20;99.90;;;;;;5013785;28;20585;-79
2022/11/06 11:08:49;;;;;;;5.30;1.93;;;14.20;99.90;;;;;;5012453;28;20588;-80
2022/11/06 11:11:21;;;;;;;3.57;1.60;;;14.10;99.90;;;;;;4995449;28;20640;-80
2022/11/06 11:14:11;;;;;;;3.50;1.53;;;14.10;99.90;;;;;;4992768;28;20570;-80
2022/11/06 11:16:40;;;;;;;3.90;2.07;;;14.10;99.90;;;;;;4952153;28;21073;-80
2022/11/06 11:19:24;;;;;;;3.60;1.50;;;14.10;99.90;;;;;;5006233;28;20699;-81
2022/11/06 11:21:54;;;;;;;3.60;1.50;;;14.10;99.90;;;;;;5013325;28;20612;-81
2022/11/06 11:24:20;;;;;;;4.37;1.83;;;14.10;99.90;;;;;;5013047;28;20925;-79
2022/11/06 11:26:52;;;;;;;4.30;2.00;;;14.10;99.90;;;;;;5013277;28;20580;-80
2022/11/06 11:29:22;;;;;;;3.90;1.57;;;14.10;99.90;;;;;;5012242;28;20931;-80
2022/11/06 11:31:57;;;;;;;3.57;1.50;;;14.00;99.90;;;;;;5011321;28;20671;-78
2022/11/06 11:34:27;;;;;;;4.67;2.20;;;14.00;99.90;;;;;;5004276;28;21017;-78
2022/11/06 11:37:01;;;;;;;5.10;2.30;;;14.00;99.90;;;;;;5012642;28;20724;-79
2022/11/06 11:39:34;;;;;;;4.63;2.03;;;13.90;99.90;;;;;;5013437;28;20573;-80
2022/11/06 11:42:21;;;;;;;4.30;2.27;;;14.00;99.90;;;;;;5012494;28;20923;-80
2022/11/06 11:45:05;;;;;;;7.73;2.53;;;14.10;99.90;;;;;;5011958;28;20565;-80
2022/11/06 11:47:30;;;;;;;4.07;2.10;;;14.10;99.90;;;;;;5014636;28;21122;-80
2022/11/06 11:49:56;;;;;;;4.90;1.97;;;14.10;99.90;;;;;;5013199;28;20655;-78
2022/11/06 11:52:22;;;;;;;3.20;1.50;;;14.10;99.90;;;;;;5011021;28;20284;-78
2022/11/06 11:54:52;;;;;;;4.43;1.90;;;14.20;99.90;;;;;;5011792;28;20593;-77
2022/11/06 11:57:22;;;;;;;4.13;1.80;;;14.10;99.90;;;;;;5012409;28;20171;-77
2022/11/06 11:59:56;;;;;;;3.67;1.57;;;14.20;99.90;;;;;;5011725;28;20615;-77
2022/11/06 12:02:34;;;;;;;3.13;2.03;;;14.20;99.90;;;;;;5011989;28;20594;-79
2022/11/06 12:05:26;;;;;;;7.67;1.90;;;14.30;99.90;;;;;;5012778;28;20562;-77
2022/11/06 12:07:56;;;;;;;3.53;1.83;;;14.40;99.90;;;;;;5001884;28;20594;-77
2022/11/06 12:10:31;;;;;;;4.80;1.90;;;14.30;99.90;;;;;;5004199;28;20586;-77
2022/11/06 12:13:00;;;;;;;2.83;1.80;;;14.40;99.90;;;;;;5003592;28;21117;-77
2022/11/06 12:15:36;;;;;;;3.90;1.70;;;14.50;99.90;;;;;;4985737;28;21228;-78
2022/11/06 12:18:11;;;;;;;3.90;2.00;;;14.60;99.90;;;;;;5002912;28;20601;-77
2022/11/06 12:20:51;;;;;;;6.03;1.30;;;14.60;99.90;;;;;;4984471;28;20589;-77
2022/11/06 12:23:40;;;;;;;5.73;2.10;;;14.70;99.90;;;;;;5006102;28;20608;-76
2022/11/06 12:26:28;;;;;;;3.77;1.40;;;14.70;99.90;;;;;;5001520;28;20640;-76
2022/11/06 12:29:18;;;;;;;2.80;1.50;;;14.80;99.90;;;;;;5002668;28;20569;-77
2022/11/06 12:31:56;;;;;;;6.80;3.03;;;14.70;99.90;;;;;;5001653;28;20601;-77
2022/11/06 12:34:35;;;;;;;5.43;1.90;;;14.80;99.90;;;;;;5001423;28;20574;-76
2022/11/06 12:37:14;;;;;;;5.57;2.10;;;14.80;99.90;;;;;;4997490;28;20653;-76
2022/11/06 12:39:42;;;;;;;3.63;1.80;;;14.80;99.90;;;;;;4992411;28;20605;-76
2022/11/06 12:42:12;;;;;;;3.80;1.50;;;14.90;99.90;;;;;;4983939;28;20709;-77
2022/11/06 12:44:38;;;;;;;2.43;1.13;;;15.00;99.90;;;;;;5002306;28;20694;-76
2022/11/06 12:47:19;;;;;;;2.90;1.20;;;15.00;99.90;;;;;;5001041;28;20578;-76
2022/11/06 12:50:09;;;;;;;7.47;1.53;;;15.10;99.90;;;;;;5004786;28;20614;-77
2022/11/06 12:52:35;;;;;;;2.20;1.30;;;15.10;99.90;;;;;;5001312;28;20665;-77
2022/11/06 12:55:21;;;;;;;3.60;1.53;;;15.20;99.90;;;;;;5000834;28;20578;-77
2022/11/06 12:58:04;;;;;;;4.17;1.47;;;15.20;99.90;;;;;;5002823;28;21151;-76
2022/11/06 13:00:45;;;;;;;2.63;1.10;;;15.20;99.90;;;;;;5015149;28;20570;-77
2022/11/06 13:03:35;;;;;;;5.50;1.87;;;15.20;99.90;;;;;;5006033;28;20577;-77
2022/11/06 13:06:16;;;;;;;4.83;2.07;;;15.30;99.90;;;;;;5026981;28;20704;-77
2022/11/06 13:08:52;;;;;;;5.00;2.10;;;15.30;99.90;;;;;;5011572;28;20680;-77
2022/11/06 13:11:36;;;;;;;3.70;1.60;;;15.20;99.90;;;;;;5010077;28;20643;-76
2022/11/06 13:14:12;;;;;;;4.40;1.30;;;15.20;99.90;;;;;;5008355;28;20664;-76
2022/11/06 13:17:02;;;;;;;5.03;1.97;;;15.20;99.90;;;;;;5009736;28;20977;-76
2022/11/06 13:19:49;;;;;;;2.57;1.10;;;15.00;99.90;;;;;;4992133;28;21211;-76
2022/11/06 13:22:36;;;;;;;5.40;1.77;;;15.10;99.90;;;;;;4991823;28;20628;-76
2022/11/06 13:25:25;;;;;;;2.40;1.00;;;15.10;99.90;;;;;;5013184;28;20589;-76
2022/11/06 13:28:22;;;;;;;5.57;1.20;;;15.10;99.90;;;;;;4996817;28;20645;-76